This is the latest recevied weather packets stored in our database for station/object KF4PPJ. If no packets are shown the sender has not sent any weather packets the latest 10 day(s).
| Time | Temp. | Humidity | Pressure | Rain* | Wind** | Luminosity | Snow |
|---|---|---|---|---|---|---|---|
| 1777509205 | 20° C | 48% | 1024.8 hPa | 0 mm | - | 322 W/m² | - |
| 1777508296 | 20° C | 47% | 1024.7 hPa | 0 mm | - | 380 W/m² | - |
| 1777506173 | 20° C | 50% | 1025 hPa | 0 mm | - | 478 W/m² | - |
| 1777505565 | 20.56° C | 50% | 1024.9 hPa | 0 mm | - | 515 W/m² | - |
| 1777502531 | 19.44° C | 50% | 1025.4 hPa | 0 mm | - | 587 W/m² | - |
| 1777502229 | 20° C | 50% | 1025.6 hPa | 0 mm | - | 586 W/m² | - |
| 1777501926 | 20° C | 52% | 1025.6 hPa | 0 mm | - | 591 W/m² | - |
| 1777501623 | 20° C | 51% | 1025.4 hPa | 0 mm | - | 573 W/m² | - |
| 1777500715 | 19.44° C | 53% | 1025.6 hPa | 0 mm | - | 640 W/m² | - |
| 1777499805 | 19.44° C | 52% | 1025.7 hPa | 0 mm | - | 611 W/m² | - |
| 1777497075 | 17.78° C | 53% | 1026 hPa | 0 mm | - | 418 W/m² | - |
| 1777496470 | 17.78° C | 53% | 1026.3 hPa | 0 mm | - | 579 W/m² | - |
| 1777491616 | 16.67° C | 58% | 1026.7 hPa | 0 mm | - | 694 W/m² | - |
| 1777491314 | 16.67° C | 60% | 1026.7 hPa | 0 mm | - | 691 W/m² | - |
| 1777487981 | 15.56° C | 65% | 1027.3 hPa | 0 mm | - | 406 W/m² | - |
| 1777487375 | 15.56° C | 63% | 1027.4 hPa | 0 mm | - | 525 W/m² | - |
| 1777484341 | 14.44° C | 66% | 1027.4 hPa | 0 mm | - | 651 W/m² | - |
| 1777484037 | 14.44° C | 67% | 1027.6 hPa | 0 mm | - | 626 W/m² | - |
| 1777483734 | 14.44° C | 66% | 1027.7 hPa | 0 mm | - | 293 W/m² | - |
| 1777483430 | 15° C | 65% | 1027.4 hPa | 0 mm | - | 582 W/m² | - |
| 1777483125 | 14.44° C | 67% | 1027.5 hPa | 0 mm | - | 526 W/m² | - |
| 1777482518 | 13.89° C | 68% | 1027.7 hPa | 0 mm | - | 579 W/m² | - |
| 1777482216 | 14.44° C | 65% | 1027.7 hPa | 0 mm | - | 544 W/m² | - |
| 1777481913 | 13.89° C | 65% | 1027.7 hPa | 0 mm | - | 530 W/m² | - |
| 1777481611 | 13.33° C | 67% | 1027.9 hPa | 0 mm | - | 474 W/m² | - |
* Rain latest hour (hover to see other rain measurements)
** Current wind speed in m/s (hover to see current wind gust speed)